Time;durP1;ratioP1;P1;durP2;ratioP2;P2;SDS_P1;SDS_P2;PMS_P1;PMS_P2;Temp;Humidity;BMP_temperature;BMP_pressure;BME280_temperature;BME280_humidity;BME280_pressure;Samples;Min_cycle;Max_cycle;Signal;HPM_P1;HPM_P2
2023/10/21 00:00:34;;;;;;;9.88;3.90;;;;;;;19.13;57.80;98379.69;5132807;27;20062;-67
2023/10/21 00:03:06;;;;;;;9.87;3.67;;;;;;;19.11;57.72;98376.34;5132781;27;20054;-68
2023/10/21 00:05:37;;;;;;;6.63;3.38;;;;;;;19.13;57.70;98385.09;5132694;27;20055;-67
2023/10/21 00:08:07;;;;;;;9.50;3.97;;;;;;;19.12;57.72;98373.47;5132702;27;20075;-67
2023/10/21 00:10:35;;;;;;;11.73;3.90;;;;;;;19.12;57.76;98361.81;5132201;27;20103;-67
2023/10/21 00:13:04;;;;;;;9.25;3.65;;;;;;;19.12;58.04;98367.22;5131320;27;20055;-67
2023/10/21 00:15:35;;;;;;;10.88;4.25;;;;;;;19.12;58.19;98368.06;5132641;27;20047;-67
2023/10/21 00:18:03;;;;;;;11.88;4.15;;;;;;;19.12;58.02;98378.03;5133742;27;20058;-67
2023/10/21 00:20:32;;;;;;;10.93;4.50;;;;;;;19.12;58.24;98378.03;5136861;27;20043;-66
2023/10/21 00:23:01;;;;;;;10.93;4.00;;;;;;;19.13;58.26;98382.41;5136811;27;20055;-67
2023/10/21 00:25:32;;;;;;;11.13;4.25;;;;;;;19.13;57.98;98390.50;5136818;27;20055;-67
2023/10/21 00:28:00;;;;;;;7.35;3.45;;;;;;;19.13;57.92;98390.50;5136628;27;20070;-67
2023/10/21 00:30:28;;;;;;;10.25;4.07;;;;;;;19.12;58.06;98386.13;5136758;27;20043;-66
2023/10/21 00:32:58;;;;;;;11.75;4.25;;;;;;;19.13;58.24;98383.25;5136829;27;20047;-65
2023/10/21 00:35:27;;;;;;;13.40;4.50;;;;;;;19.13;58.09;98385.94;5136698;27;20500;-67
2023/10/21 00:37:55;;;;;;;13.05;4.28;;;;;;;19.13;58.05;98379.69;5136894;27;20039;-67
2023/10/21 00:40:24;;;;;;;8.35;3.72;;;;;;;19.13;57.96;98372.44;5136500;27;20095;-66
2023/10/21 00:42:52;;;;;;;10.52;4.30;;;;;;;19.13;58.24;98380.53;5136653;27;20039;-66
2023/10/21 00:45:20;;;;;;;11.43;4.00;;;;;;;19.14;57.89;98379.50;5136476;27;20051;-67
2023/10/21 00:47:50;;;;;;;8.85;4.38;;;;;;;19.14;58.17;98376.81;5136335;27;20047;-67
2023/10/21 00:50:22;;;;;;;9.70;4.20;;;;;;;19.12;58.02;98378.03;5136638;27;20047;-67
2023/10/21 00:52:50;;;;;;;10.03;4.10;;;;;;;19.15;58.40;98388.44;5136397;27;20404;-67
2023/10/21 00:55:19;;;;;;;10.07;4.00;;;;;;;19.15;58.26;98393.84;5136403;27;20051;-67
2023/10/21 00:57:47;;;;;;;10.50;4.25;;;;;;;19.14;58.25;98392.19;5136362;27;20771;-66
2023/10/21 01:00:16;;;;;;;12.88;4.93;;;;;;;19.13;58.45;98390.50;5136194;27;20077;-67
2023/10/21 01:02:47;;;;;;;10.95;4.10;;;;;;;19.13;58.46;98395.91;5136242;27;20051;-67
2023/10/21 01:05:16;;;;;;;9.02;4.20;;;;;;;19.14;58.50;98405.69;5135984;27;20539;-67
2023/10/21 01:07:46;;;;;;;11.32;5.00;;;;;;;19.14;58.36;98409.22;5136032;27;20426;-67
2023/10/21 01:10:14;;;;;;;10.93;4.28;;;;;;;19.14;58.37;98414.63;5136100;27;20043;-67
2023/10/21 01:12:43;;;;;;;13.43;4.47;;;;;;;19.12;58.28;98414.00;5135738;27;20554;-67
2023/10/21 01:15:11;;;;;;;9.77;4.10;;;;;;;19.15;58.66;98408.19;5136157;27;20099;-66
2023/10/21 01:17:41;;;;;;;11.00;4.30;;;;;;;19.15;58.17;98410.06;5136008;27;20043;-67
2023/10/21 01:20:13;;;;;;;11.38;4.68;;;;;;;19.13;58.39;98407.56;5135779;27;20150;-67
2023/10/21 01:22:41;;;;;;;8.73;3.85;;;;;;;19.14;58.24;98408.41;5135608;27;20439;-67
2023/10/21 01:25:11;;;;;;;10.23;4.00;;;;;;;19.14;58.31;98408.41;5135597;27;20047;-67
2023/10/21 01:27:41;;;;;;;10.88;4.38;;;;;;;19.11;58.38;98403.38;5135731;27;20059;-67
2023/10/21 01:30:10;;;;;;;11.40;3.97;;;;;;;19.13;58.33;98406.72;5135353;27;20047;-67
2023/10/21 01:32:38;;;;;;;7.55;3.50;;;;;;;19.13;58.26;98412.13;5134398;27;20039;-67
2023/10/21 01:35:07;;;;;;;11.63;4.32;;;;;;;19.15;58.36;98421.72;5135639;27;20043;-67
2023/10/21 01:37:37;;;;;;;10.90;4.25;;;;;;;19.15;58.63;98421.72;5134376;27;20497;-67
2023/10/21 01:40:09;;;;;;;9.40;3.83;;;;;;;19.16;58.36;98422.53;5135396;27;20100;-67
2023/10/21 01:42:39;;;;;;;10.70;4.25;;;;;;;19.15;58.38;98424.41;5135539;27;20039;-67
2023/10/21 01:45:09;;;;;;;7.80;4.07;;;;;;;19.15;58.73;98415.47;5135383;27;20051;-67
2023/10/21 01:47:40;;;;;;;10.38;4.45;;;;;;;19.15;58.66;98416.31;5135313;27;20136;-67
2023/10/21 01:50:16;;;;;;;10.48;4.47;;;;;;;19.16;58.44;98417.13;5134146;27;20141;-67
2023/10/21 01:52:44;;;;;;;12.23;4.70;;;;;;;19.15;58.54;98424.41;5135342;27;20047;-67
2023/10/21 01:55:13;;;;;;;9.98;3.92;;;;;;;19.15;58.36;98429.81;5135161;27;20479;-67
2023/10/21 01:57:44;;;;;;;9.98;3.70;;;;;;;19.16;58.36;98430.66;5135182;27;20043;-67
2023/10/21 02:00:18;;;;;;;12.38;4.00;;;;;;;19.16;58.40;98433.34;5135043;27;20100;-67
2023/10/21 02:02:51;;;;;;;9.40;4.55;;;;;;;19.17;58.39;98435.03;5134776;27;20043;-67
2023/10/21 02:05:22;;;;;;;10.75;4.25;;;;;;;19.16;58.20;98438.75;5135182;27;20047;-67
2023/10/21 02:07:51;;;;;;;10.95;4.18;;;;;;;19.16;58.61;98438.75;5134884;27;20066;-67
2023/10/21 02:10:20;;;;;;;13.23;4.18;;;;;;;19.17;58.61;98445.84;5134896;27;20074;-66
2023/10/21 02:12:50;;;;;;;10.13;3.95;;;;;;;19.16;58.17;98446.88;5134916;27;20141;-67
2023/10/21 02:15:18;;;;;;;10.32;4.28;;;;;;;19.16;58.35;98455.81;5134755;27;20511;-67
2023/10/21 02:17:47;;;;;;;9.20;4.07;;;;;;;19.16;58.24;98466.63;5135061;27;20100;-67
2023/10/21 02:20:15;;;;;;;9.43;4.32;;;;;;;19.16;58.18;98471.19;5134538;27;20487;-67
2023/10/21 02:22:44;;;;;;;11.95;4.43;;;;;;;19.16;58.47;98472.03;5134612;27;20051;-67
2023/10/21 02:25:13;;;;;;;10.93;4.20;;;;;;;19.16;58.37;98476.59;5134683;27;20133;-67
2023/10/21 02:27:43;;;;;;;10.65;4.22;;;;;;;19.15;58.30;98481.16;5134445;27;20044;-67
2023/10/21 02:30:16;;;;;;;13.13;4.15;;;;;;;19.17;58.15;98489.06;5133156;27;20080;-67
2023/10/21 02:32:45;;;;;;;11.80;4.55;;;;;;;19.16;58.14;98484.69;5134745;27;20091;-67
2023/10/21 02:35:14;;;;;;;10.13;4.30;;;;;;;19.17;58.28;98494.47;5134700;27;20143;-67
2023/10/21 02:37:43;;;;;;;9.07;3.92;;;;;;;19.17;58.59;98491.78;5134643;27;20051;-67
2023/10/21 02:40:15;;;;;;;11.75;4.10;;;;;;;19.17;58.14;98480.97;5133643;27;20039;-67
2023/10/21 02:42:44;;;;;;;11.68;4.53;;;;;;;19.15;58.37;98488.44;5133943;27;20100;-67
2023/10/21 02:45:15;;;;;;;10.20;4.40;;;;;;;19.17;58.69;98486.38;5134474;27;20051;-67
2023/10/21 02:47:46;;;;;;;11.63;4.55;;;;;;;19.16;58.37;98490.09;5134214;27;20083;-67
2023/10/21 02:50:18;;;;;;;10.18;3.80;;;;;;;19.16;58.38;98482.84;5134112;27;20058;-68
2023/10/21 02:52:47;;;;;;;9.82;4.10;;;;;;;19.16;58.14;98490.09;5134052;27;20047;-67
2023/10/21 02:55:15;;;;;;;12.45;4.28;;;;;;;19.16;58.30;98484.69;5133880;27;20574;-67
2023/10/21 02:57:44;;;;;;;9.98;3.80;;;;;;;19.16;58.51;98490.94;5133898;27;20415;-67
2023/10/21 03:00:17;;;;;;;13.07;4.32;;;;;;;19.16;58.18;98499.06;5132274;27;20051;-67
2023/10/21 03:02:49;;;;;;;8.93;4.10;;;;;;;19.16;58.09;98498.22;5133907;27;20099;-67
2023/10/21 03:05:22;;;;;;;12.27;4.18;;;;;;;19.15;58.18;98485.72;5133783;27;20133;-67
2023/10/21 03:07:56;;;;;;;9.75;4.13;;;;;;;19.16;58.22;98492.81;5133817;27;20051;-67
2023/10/21 03:10:24;;;;;;;9.77;4.18;;;;;;;19.16;58.14;98509.84;5133831;27;20050;-67
2023/10/21 03:12:56;;;;;;;7.60;3.80;;;;;;;19.16;58.44;98511.72;5133669;27;20047;-67
2023/10/21 03:15:25;;;;;;;11.50;4.15;;;;;;;19.17;58.08;98510.69;5133710;27;20090;-67
2023/10/21 03:17:54;;;;;;;9.75;4.20;;;;;;;19.16;58.39;98514.44;5133617;27;20047;-67
2023/10/21 03:20:28;;;;;;;7.97;3.63;;;;;;;19.16;58.47;98519.84;5132138;27;20047;-66
2023/10/21 03:22:56;;;;;;;11.20;3.92;;;;;;;19.16;58.14;98514.44;5133169;27;20094;-67
2023/10/21 03:25:25;;;;;;;9.32;3.78;;;;;;;19.15;58.24;98513.59;5133498;27;20062;-67
2023/10/21 03:28:13;;;;;;;10.02;3.80;;;;;;;19.16;58.07;98511.72;5150788;27;20751;-67
2023/10/21 03:30:46;;;;;;;9.30;3.85;;;;;;;19.15;58.41;98518.16;5150794;27;20548;-67
2023/10/21 03:33:16;;;;;;;10.35;3.95;;;;;;;19.15;58.36;98518.16;5150968;27;20083;-66
2023/10/21 03:35:52;;;;;;;10.52;4.10;;;;;;;19.16;58.43;98525.25;5149360;27;20092;-66
2023/10/21 03:38:22;;;;;;;9.82;3.75;;;;;;;19.15;58.24;98519.00;5150598;27;20487;-67
2023/10/21 03:41:04;;;;;;;9.50;3.85;;;;;;;19.14;58.10;98520.03;5150535;27;20039;-66
2023/10/21 03:43:34;;;;;;;8.70;3.63;;;;;;;19.13;58.05;98510.25;5150791;27;20058;-66
2023/10/21 03:46:06;;;;;;;9.57;4.10;;;;;;;19.13;58.48;98507.53;5150575;27;20045;-66
2023/10/21 03:48:35;;;;;;;10.85;3.50;;;;;;;19.13;58.25;98512.94;5150564;27;20039;-66
2023/10/21 03:51:06;;;;;;;7.78;4.05;;;;;;;19.14;58.11;98528.13;5150474;27;20101;-67
2023/10/21 03:53:34;;;;;;;11.13;3.80;;;;;;;19.14;58.50;98528.13;5150338;27;20039;-67
2023/10/21 03:56:03;;;;;;;8.15;3.60;;;;;;;19.15;58.07;98528.97;5150213;27;20053;-67
2023/10/21 03:58:34;;;;;;;11.90;3.72;;;;;;;19.14;58.44;98538.94;5150554;27;20074;-67
2023/10/21 04:01:03;;;;;;;7.70;3.58;;;;;;;19.13;58.45;98539.13;5150469;27;20047;-66
2023/10/21 04:03:31;;;;;;;9.60;4.10;;;;;;;19.12;58.03;98541.00;5150264;27;20042;-66
2023/10/21 04:06:00;;;;;;;8.70;3.85;;;;;;;19.13;58.42;98556.19;5150193;27;20047;-66
2023/10/21 04:08:30;;;;;;;10.05;3.75;;;;;;;19.13;58.02;98566.16;5150168;27;20051;-66
2023/10/21 04:10:59;;;;;;;8.85;4.20;;;;;;;19.13;58.05;98568.88;5148865;27;20564;-66
2023/10/21 04:13:27;;;;;;;9.65;3.88;;;;;;;19.13;58.29;98571.56;5150164;27;20078;-66
2023/10/21 04:15:57;;;;;;;8.65;3.65;;;;;;;19.13;58.38;98587.78;5150018;27;20186;-67
2023/10/21 04:18:28;;;;;;;9.65;4.18;;;;;;;19.15;58.47;98588.44;5150006;27;20055;-66
2023/10/21 04:20:56;;;;;;;9.20;4.00;;;;;;;19.14;58.62;98593.00;5149758;27;20043;-66
2023/10/21 04:23:28;;;;;;;11.50;3.78;;;;;;;19.13;58.65;98585.09;5149977;27;20093;-66
2023/10/21 04:25:59;;;;;;;11.98;4.50;;;;;;;19.14;58.67;98586.75;5149753;27;20039;-67
2023/10/21 04:28:27;;;;;;;7.93;3.83;;;;;;;19.13;58.52;98590.47;5149884;27;20053;-66
2023/10/21 04:30:58;;;;;;;7.93;4.03;;;;;;;19.13;58.56;98601.28;5149707;27;20089;-66
2023/10/21 04:33:29;;;;;;;8.43;3.67;;;;;;;19.13;58.29;98617.50;5149669;27;20480;-66
2023/10/21 04:35:58;;;;;;;10.32;3.97;;;;;;;19.13;58.61;98612.09;5149627;27;20043;-67
2023/10/21 04:38:25;;;;;;;8.93;3.80;;;;;;;19.13;58.75;98617.50;5142169;27;20057;-66
2023/10/21 04:40:54;;;;;;;9.30;4.13;;;;;;;19.13;58.69;98623.75;5135815;27;20623;-65
2023/10/21 04:43:25;;;;;;;8.27;3.83;;;;;;;19.13;58.60;98641.84;5135710;27;20043;-66
2023/10/21 04:45:54;;;;;;;8.80;3.60;;;;;;;19.13;58.57;98639.13;5135579;27;20053;-66
2023/10/21 04:48:26;;;;;;;9.80;4.00;;;;;;;19.13;58.47;98636.44;5135663;27;20122;-66
2023/10/21 04:50:55;;;;;;;8.63;4.00;;;;;;;19.15;58.61;98637.06;5135625;27;20057;-66
2023/10/21 04:53:25;;;;;;;8.38;3.60;;;;;;;19.13;58.29;98641.84;5135642;27;20502;-66
2023/10/21 04:55:57;;;;;;;11.68;4.18;;;;;;;19.13;58.49;98656.19;5135531;27;20142;-66
2023/10/21 04:58:26;;;;;;;10.52;4.20;;;;;;;19.14;58.22;98665.13;5135413;27;20100;-66
2023/10/21 05:00:55;;;;;;;7.60;3.83;;;;;;;19.15;58.39;98674.91;5135531;27;20567;-66
2023/10/21 05:03:23;;;;;;;8.93;3.72;;;;;;;19.15;58.58;98674.91;5135331;27;20047;-66
2023/10/21 05:05:53;;;;;;;10.50;4.13;;;;;;;19.15;58.38;98683.00;5135284;27;20054;-66
2023/10/21 05:08:22;;;;;;;9.52;3.65;;;;;;;19.13;58.57;98704.00;5135036;27;20571;-66
2023/10/21 05:10:50;;;;;;;9.82;3.78;;;;;;;19.15;58.64;98712.75;5135132;27;20047;-66
2023/10/21 05:13:19;;;;;;;7.78;3.65;;;;;;;19.13;58.57;98696.72;5135037;27;20515;-66
2023/10/21 05:15:47;;;;;;;9.98;4.05;;;;;;;19.15;58.47;98701.94;5135294;27;20043;-67
2023/10/21 05:18:16;;;;;;;9.80;4.40;;;;;;;19.14;58.64;98695.69;5134940;27;20047;-66
2023/10/21 05:20:44;;;;;;;9.88;3.55;;;;;;;19.15;58.54;98694.66;5134967;27;20054;-65
2023/10/21 05:23:14;;;;;;;11.88;3.67;;;;;;;19.14;58.38;98675.94;5133784;27;20043;-66
2023/10/21 05:25:43;;;;;;;8.13;3.40;;;;;;;19.14;58.55;98679.47;5134740;27;20051;-66
2023/10/21 05:28:11;;;;;;;12.38;4.05;;;;;;;19.14;59.29;98674.06;5134969;27;20043;-67
2023/10/21 05:30:42;;;;;;;9.13;3.33;;;;;;;19.15;59.52;98664.09;5134963;27;20099;-66
2023/10/21 05:33:10;;;;;;;9.30;3.28;;;;;;;19.14;59.23;98660.56;5134755;27;20047;-67
2023/10/21 05:35:42;;;;;;;8.10;3.08;;;;;;;19.15;59.60;98661.41;5134963;27;20043;-67
2023/10/21 05:38:15;;;;;;;8.10;3.42;;;;;;;19.15;59.51;98647.88;5134463;27;20047;-67
2023/10/21 05:40:43;;;;;;;8.52;3.45;;;;;;;19.16;59.51;98646.84;5134739;27;20072;-66
2023/10/21 05:43:12;;;;;;;8.98;3.13;;;;;;;19.15;59.75;98664.94;5134665;27;20043;-67
2023/10/21 05:45:40;;;;;;;8.50;3.38;;;;;;;19.16;60.02;98668.47;5134539;27;20084;-66
2023/10/21 05:48:09;;;;;;;7.93;3.13;;;;;;;19.16;59.64;98671.19;5134230;27;20083;-66
2023/10/21 05:50:41;;;;;;;7.53;3.67;;;;;;;19.16;59.97;98673.88;5133299;27;20406;-66
2023/10/21 05:53:09;;;;;;;8.68;3.42;;;;;;;19.15;59.83;98686.56;5134310;27;20108;-66
2023/10/21 05:55:42;;;;;;;7.07;3.22;;;;;;;19.16;59.80;98696.34;5134321;27;20039;-67
2023/10/21 05:58:11;;;;;;;6.03;2.80;;;;;;;19.17;59.96;98700.72;5134292;27;20093;-67
2023/10/21 06:00:39;;;;;;;8.43;3.03;;;;;;;19.17;59.86;98716.09;5134136;27;20275;-66
2023/10/21 06:03:07;;;;;;;8.35;3.00;;;;;;;19.17;59.92;98724.22;5134009;27;20448;-67
2023/10/21 06:05:36;;;;;;;7.35;2.83;;;;;;;19.17;60.33;98711.53;5133830;27;20100;-67
2023/10/21 06:08:05;;;;;;;6.57;2.60;;;;;;;19.17;60.14;98721.50;5133819;27;20510;-67
2023/10/21 06:10:34;;;;;;;6.78;2.75;;;;;;;19.18;60.35;98731.28;5134115;27;20134;-66
2023/10/21 06:13:05;;;;;;;9.55;2.90;;;;;;;19.17;60.17;98754.78;5133839;27;20142;-66
2023/10/21 06:15:38;;;;;;;7.65;2.60;;;;;;;19.19;60.59;98768.09;5133702;27;20054;-66
2023/10/21 06:18:06;;;;;;;8.73;2.72;;;;;;;19.18;60.17;98785.34;5133797;27;20043;-66
2023/10/21 06:20:36;;;;;;;5.47;2.75;;;;;;;19.18;60.22;98796.16;5133836;27;20055;-66
2023/10/21 06:23:05;;;;;;;8.45;2.70;;;;;;;19.19;60.43;98795.13;5133731;27;20578;-66
2023/10/21 06:25:33;;;;;;;8.43;2.63;;;;;;;19.18;60.58;98790.75;5133645;27;20539;-66
2023/10/21 06:28:03;;;;;;;8.85;3.20;;;;;;;19.19;60.78;98795.13;5133514;27;20061;-67
2023/10/21 06:30:35;;;;;;;7.22;2.92;;;;;;;19.20;60.50;98802.22;5133591;27;20085;-66
2023/10/21 06:33:07;;;;;;;8.52;3.00;;;;;;;19.17;60.50;98805.28;5133593;27;20104;-67
2023/10/21 06:35:37;;;;;;;8.38;2.88;;;;;;;19.19;60.22;98811.34;5133503;27;20431;-66
2023/10/21 06:38:08;;;;;;;6.63;2.55;;;;;;;19.19;60.30;98829.44;5133554;27;20047;-67
2023/10/21 06:40:37;;;;;;;7.82;2.83;;;;;;;19.18;60.42;98831.28;5133283;27;20476;-66
2023/10/21 06:43:09;;;;;;;7.68;3.13;;;;;;;19.20;60.66;98842.75;5133133;27;20095;-66
2023/10/21 06:45:38;;;;;;;9.07;2.80;;;;;;;19.19;60.46;98849.19;5133561;27;20130;-71
2023/10/21 06:48:08;;;;;;;7.53;2.65;;;;;;;19.18;60.16;98850.22;5133079;27;20112;-70
2023/10/21 06:50:37;;;;;;;7.32;2.97;;;;;;;19.19;60.03;98838.38;5133035;27;20419;-67
2023/10/21 06:53:05;;;;;;;7.63;2.38;;;;;;;19.19;60.03;98837.53;5133301;27;20130;-68
2023/10/21 06:55:41;;;;;;;7.15;2.83;;;;;;;19.19;60.16;98845.66;5132965;27;20066;-67
2023/10/21 06:58:12;;;;;;;5.45;2.50;;;;;;;19.20;60.16;98839.22;5133149;27;20043;-68
2023/10/21 07:00:40;;;;;;;8.05;2.55;;;;;;;19.18;59.80;98834.00;5132886;27;20130;-67
2023/10/21 07:03:09;;;;;;;8.88;2.90;;;;;;;19.18;59.72;98834.00;5166079;27;20051;-68
2023/10/21 07:05:37;;;;;;;6.97;2.40;;;;;;;19.18;59.83;98836.69;5132849;27;20172;-68
2023/10/21 07:08:07;;;;;;;6.75;2.72;;;;;;;19.19;60.28;98843.78;5132861;27;20047;-67
2023/10/21 07:10:35;;;;;;;7.18;2.30;;;;;;;19.19;60.02;98843.78;5133063;27;20046;-66
2023/10/21 07:13:06;;;;;;;7.63;2.50;;;;;;;19.20;60.13;98848.16;5132471;27;20083;-67
2023/10/21 07:15:36;;;;;;;6.65;2.60;;;;;;;19.19;60.44;98835.66;5132890;27;20468;-68
2023/10/21 07:18:05;;;;;;;7.38;2.63;;;;;;;19.18;59.96;98836.69;5132749;27;20419;-67
2023/10/21 07:20:36;;;;;;;8.05;2.70;;;;;;;19.18;60.28;98844.81;5133093;27;20045;-67
2023/10/21 07:23:08;;;;;;;6.72;2.47;;;;;;;19.18;60.44;98852.91;5133192;27;20082;-67
2023/10/21 07:25:37;;;;;;;4.80;2.28;;;;;;;19.18;60.43;98850.22;5132842;27;20039;-67
2023/10/21 07:28:06;;;;;;;6.32;2.63;;;;;;;19.17;60.11;98852.06;5148476;27;20059;-67
2023/10/21 07:30:39;;;;;;;6.72;2.53;;;;;;;19.18;59.91;98866.44;5131520;27;20128;-67
2023/10/21 07:33:10;;;;;;;8.05;2.47;;;;;;;19.18;59.94;98879.94;5132370;27;20115;-67
2023/10/21 07:35:39;;;;;;;5.80;2.45;;;;;;;19.19;60.15;98892.44;5132767;28;20090;-67
2023/10/21 07:38:07;;;;;;;6.28;2.17;;;;;;;19.18;59.83;98906.97;5132884;27;20399;-67
2023/10/21 07:40:35;;;;;;;7.45;2.50;;;;;;;19.19;59.85;98919.47;5132682;27;20058;-67
2023/10/21 07:43:04;;;;;;;6.88;2.33;;;;;;;19.19;60.08;98908.66;5132665;28;20051;-67
2023/10/21 07:45:33;;;;;;;5.18;2.30;;;;;;;19.19;60.16;98924.03;5132596;28;20043;-67
2023/10/21 07:48:03;;;;;;;5.88;2.50;;;;;;;19.17;60.30;98927.75;5132326;27;20081;-67
2023/10/21 07:50:32;;;;;;;6.82;2.40;;;;;;;19.19;59.83;98938.38;5132764;27;20047;-67
2023/10/21 07:53:00;;;;;;;4.43;1.98;;;;;;;19.18;60.26;98955.63;5132473;27;20066;-66
2023/10/21 07:55:29;;;;;;;5.70;2.00;;;;;;;19.19;59.87;98945.66;5132250;28;20495;-67
2023/10/21 07:57:58;;;;;;;6.10;2.20;;;;;;;19.17;60.29;98953.94;5132479;27;20054;-67
2023/10/21 08:00:26;;;;;;;6.05;2.30;;;;;;;19.17;60.19;98954.78;5132225;27;20051;-67
2023/10/21 08:02:58;;;;;;;5.97;2.00;;;;;;;19.17;60.11;98952.09;5132646;27;20058;-67
2023/10/21 08:05:28;;;;;;;5.45;2.35;;;;;;;19.18;59.76;98950.22;5132262;28;20043;-67
2023/10/21 08:07:57;;;;;;;6.50;2.22;;;;;;;19.17;60.17;98959.34;5132375;27;20048;-67
2023/10/21 08:10:29;;;;;;;6.13;2.40;;;;;;;19.17;59.67;98956.66;5132186;27;20596;-67
2023/10/21 08:12:57;;;;;;;5.23;2.50;;;;;;;19.17;60.07;98960.19;5132765;27;20051;-67
2023/10/21 08:15:29;;;;;;;5.93;1.90;;;;;;;19.16;59.63;98976.59;5136184;27;20039;-66
2023/10/21 08:17:58;;;;;;;4.43;2.22;;;;;;;19.17;59.86;98991.78;5136202;27;20055;-67
2023/10/21 08:20:28;;;;;;;6.60;2.70;;;;;;;19.18;59.99;98985.34;5135957;27;20083;-67
2023/10/21 08:22:57;;;;;;;5.40;2.20;;;;;;;19.16;59.88;98977.44;5136070;27;20055;-67
2023/10/21 08:25:27;;;;;;;4.35;2.13;;;;;;;19.19;60.18;98981.63;5135892;27;20043;-66
2023/10/21 08:27:56;;;;;;;4.47;1.90;;;;;;;19.17;60.22;98981.81;5135904;27;20082;-66
2023/10/21 08:30:24;;;;;;;4.28;2.13;;;;;;;19.16;59.82;98973.88;5136022;27;20047;-66
2023/10/21 08:32:53;;;;;;;3.80;1.80;;;;;;;19.16;60.25;98969.31;5135859;27;20452;-67
2023/10/21 08:35:22;;;;;;;5.40;2.00;;;;;;;19.17;60.15;98968.28;5135702;27;20548;-68
2023/10/21 08:37:51;;;;;;;5.47;2.13;;;;;;;19.18;60.14;98977.25;5135705;27;20047;-64
2023/10/21 08:40:20;;;;;;;4.13;2.00;;;;;;;19.19;60.67;98978.09;5134335;27;20095;-69
2023/10/21 08:42:48;;;;;;;5.70;2.30;;;;;;;19.18;60.26;98979.94;5135795;27;20101;-68
2023/10/21 08:45:33;;;;;;;5.30;2.28;;;;;;;19.17;60.62;98981.81;5134703;27;20092;-69
2023/10/21 08:48:03;;;;;;;10.35;2.10;;;;;;;19.17;60.92;98968.28;5135701;27;20092;-67
2023/10/21 08:50:35;;;;;;;5.00;2.38;;;;;;;19.19;61.03;98957.31;5135321;27;20047;-69
2023/10/21 08:53:07;;;;;;;4.22;2.20;;;;;;;19.20;61.16;98961.69;5135504;27;20130;-66
2023/10/21 08:55:36;;;;;;;5.15;2.05;;;;;;;19.21;61.28;98959.84;5134319;27;20050;-63
2023/10/21 08:58:06;;;;;;;7.65;2.35;;;;;;;19.21;61.39;98970.66;5135486;27;20123;-69
2023/10/21 09:00:35;;;;;;;4.95;2.10;;;;;;;19.22;61.11;98984.00;5135335;27;20058;-63
2023/10/21 09:03:04;;;;;;;5.93;1.92;;;;;;;19.22;61.33;98983.16;5135298;27;20162;-66
2023/10/21 09:05:36;;;;;;;4.65;1.85;;;;;;;19.21;61.59;98987.72;5135520;27;20501;-66
2023/10/21 09:08:06;;;;;;;6.00;2.10;;;;;;;19.22;62.03;99002.91;5135235;27;20078;-63
2023/10/21 09:10:39;;;;;;;4.68;1.85;;;;;;;19.24;61.83;99008.97;5135083;27;20047;-66
2023/10/21 09:13:15;;;;;;;3.65;1.75;;;;;;;19.24;62.01;99014.38;5135334;27;20134;-62
2023/10/21 09:15:43;;;;;;;4.30;1.75;;;;;;;19.26;62.54;99033.97;5134935;27;20043;-63
2023/10/21 09:18:13;;;;;;;6.00;2.45;;;;;;;19.27;62.25;99034.81;5134001;27;20047;-63
2023/10/21 09:20:48;;;;;;;5.07;2.22;;;;;;;19.28;62.92;99031.94;5134764;27;20043;-63
2023/10/21 09:23:18;;;;;;;6.55;2.47;;;;;;;19.31;63.50;99022.63;5135035;27;20050;-63
2023/10/21 09:25:50;;;;;;;6.93;2.72;;;;;;;19.34;63.96;99025.81;5134596;27;20101;-64
2023/10/21 09:28:22;;;;;;;7.80;2.58;;;;;;;19.38;63.67;99047.94;5134383;27;20053;-62
2023/10/21 09:31:02;;;;;;;9.88;2.78;;;;;;;19.39;64.43;99049.59;5134654;27;20047;-64
2023/10/21 09:33:30;;;;;;;8.93;2.50;;;;;;;19.41;64.32;99032.22;5134482;27;20051;-64
2023/10/21 09:36:03;;;;;;;5.78;2.20;;;;;;;19.41;64.38;99024.09;5134135;27;20043;-64
2023/10/21 09:38:56;;;;;;;7.85;2.28;;;;;;;19.41;65.57;99007.88;5133278;27;20051;-64
2023/10/21 09:41:25;;;;;;;6.95;2.45;;;;;;;19.39;65.64;98996.38;5134700;27;20170;-64
2023/10/21 09:43:54;;;;;;;6.60;2.17;;;;;;;19.41;66.04;98993.50;5134594;27;20399;-64
2023/10/21 09:46:28;;;;;;;5.90;2.10;;;;;;;19.41;65.77;98990.81;5134504;27;20411;-64
2023/10/21 09:49:01;;;;;;;4.80;2.05;;;;;;;19.40;66.22;99000.78;5134264;27;20103;-64
2023/10/21 09:51:34;;;;;;;3.80;1.75;;;;;;;19.43;66.31;99003.13;5134377;27;20433;-64
2023/10/21 09:54:11;;;;;;;6.65;2.17;;;;;;;19.44;65.92;99015.63;5134399;27;20043;-64
2023/10/21 09:56:40;;;;;;;5.40;1.77;;;;;;;19.45;66.47;99020.00;5134500;27;20043;-64
2023/10/21 09:59:12;;;;;;;5.70;2.00;;;;;;;19.45;66.56;99030.81;5134264;27;20070;-64
2023/10/21 10:01:42;;;;;;;4.45;1.80;;;;;;;19.46;66.26;99028.94;5132780;27;20098;-64
2023/10/21 10:04:13;;;;;;;5.57;1.80;;;;;;;19.47;66.75;99029.78;5134072;27;20483;-63
2023/10/21 10:06:43;;;;;;;5.13;1.90;;;;;;;19.50;66.63;99026.75;5134134;27;20042;-63
2023/10/21 10:09:14;;;;;;;5.68;1.75;;;;;;;19.57;66.64;99025.03;5134010;27;20108;-63
2023/10/21 10:11:43;;;;;;;4.97;1.70;;;;;;;19.59;66.69;99028.38;5133711;27;20069;-63
2023/10/21 10:14:12;;;;;;;6.05;1.80;;;;;;;19.58;66.36;99026.72;5133735;27;20051;-63
2023/10/21 10:16:45;;;;;;;5.40;1.58;;;;;;;19.59;66.46;99017.56;5133708;27;20545;-63
2023/10/21 10:19:16;;;;;;;6.53;2.00;;;;;;;19.61;66.73;99024.50;5133697;27;20289;-64
2023/10/21 10:21:51;;;;;;;4.82;1.73;;;;;;;19.64;66.54;99031.41;5133909;27;20051;-63
2023/10/21 10:24:22;;;;;;;3.13;1.50;;;;;;;19.67;66.61;99006.69;5133599;27;20047;-63
2023/10/21 10:26:55;;;;;;;5.13;1.77;;;;;;;19.70;66.65;98996.38;5133335;27;20058;-63
2023/10/21 10:29:26;;;;;;;;;;;;;;;19.70;66.44;98976.59;5133140;27;20043;-63
2023/10/21 10:32:16;;;;;;;5.03;1.52;;;;;;;19.72;66.51;98972.69;5133445;27;20016;-63
2023/10/21 10:34:57;;;;;;;4.55;1.58;;;;;;;19.76;66.50;98981.25;5133505;27;20566;-64
2023/10/21 10:37:31;;;;;;;5.18;1.70;;;;;;;19.77;66.20;98971.28;5132773;27;20049;-63
2023/10/21 10:40:05;;;;;;;5.50;1.63;;;;;;;19.76;66.60;98965.03;5133475;27;20086;-63
2023/10/21 10:42:34;;;;;;;7.07;1.70;;;;;;;19.77;66.62;98966.72;5133195;27;20039;-63
2023/10/21 10:45:03;;;;;;;4.88;1.88;;;;;;;19.75;66.61;98973.34;5133206;27;20470;-64
2023/10/21 10:47:31;;;;;;;4.38;1.70;;;;;;;19.76;67.25;98978.56;5133111;27;20058;-63
2023/10/21 10:50:01;;;;;;;6.00;1.80;;;;;;;19.77;67.38;98982.09;5133112;27;20494;-64
2023/10/21 10:52:33;;;;;;;5.70;1.65;;;;;;;19.76;66.92;98975.84;5133383;27;20051;-64
2023/10/21 10:55:04;;;;;;;4.18;1.52;;;;;;;19.76;66.85;98985.84;5133199;27;20104;-64
2023/10/21 10:57:34;;;;;;;6.20;1.75;;;;;;;19.77;67.00;99011.88;5133062;27;20047;-64
2023/10/21 11:00:03;;;;;;;6.47;1.95;;;;;;;19.76;67.62;99019.13;5133019;27;20079;-64
2023/10/21 11:02:42;;;;;;;4.50;1.55;;;;;;;19.78;67.77;99016.25;5132851;27;20047;-64
2023/10/21 11:05:16;;;;;;;6.05;1.45;;;;;;;19.78;67.68;99038.72;5131954;27;20047;-64
2023/10/21 11:07:46;;;;;;;5.20;1.77;;;;;;;19.79;67.13;99034.19;5132924;27;20039;-64
2023/10/21 11:10:20;;;;;;;4.43;1.58;;;;;;;19.79;67.61;99026.91;5132809;27;20054;-64
2023/10/21 11:12:49;;;;;;;5.10;1.70;;;;;;;19.82;67.65;99034.66;5132794;27;20069;-64
2023/10/21 11:15:18;;;;;;;4.25;1.65;;;;;;;19.85;67.35;99037.00;5133072;27;20399;-64
2023/10/21 11:17:47;;;;;;;5.47;1.75;;;;;;;19.87;66.59;99032.22;5133020;27;20039;-64
2023/10/21 11:20:19;;;;;;;3.63;1.40;;;;;;;19.93;66.68;99045.06;5132740;27;20109;-64
2023/10/21 11:22:47;;;;;;;4.53;1.70;;;;;;;19.96;66.80;99047.38;5132639;27;20566;-64
2023/10/21 11:25:15;;;;;;;6.30;1.58;;;;;;;19.96;66.78;99058.22;5132392;27;20072;-62
2023/10/21 11:27:52;;;;;;;4.65;1.50;;;;;;;19.95;67.08;99051.13;5133117;27;20102;-64
2023/10/21 11:30:22;;;;;;;3.83;1.60;;;;;;;19.97;67.37;99064.47;5131517;27;20039;-64
2023/10/21 11:32:51;;;;;;;6.13;1.85;;;;;;;19.96;67.89;99060.06;5132782;27;20165;-63
2023/10/21 11:35:20;;;;;;;7.97;2.08;;;;;;;19.98;67.75;99061.59;5131161;27;20139;-63
2023/10/21 11:37:50;;;;;;;4.07;1.60;;;;;;;20.00;66.83;99066.81;5132032;27;20134;-70
2023/10/21 11:40:19;;;;;;;5.97;2.00;;;;;;;20.01;66.69;99077.47;5131895;27;20043;-64
2023/10/21 11:43:00;;;;;;;4.80;1.58;;;;;;;20.00;66.34;99086.63;5132015;27;20134;-63
2023/10/21 11:45:30;;;;;;;6.95;1.80;;;;;;;20.02;66.74;99084.56;5132238;27;20050;-64